Conakry, Guinea
Current Conditions -  °F | °C
As of 9:00 AM on Thursday 27 Nov 2014 (Local Time) from GUCY Reporting Station
Few Clouds Few Clouds  
Wind Chill: 81°   Ceiling: Unl
Heat Index: 87°   Visibility: 6mi
Dew Point: 77°   Wind: 5mph
Humidity: 89%   Direction: 330°NNW
Pressure: 29.88"   Gusts: NA
Location:  9.55°N, 13.67°W
Report Text: GUCY 270900Z 33004KT 9999 FEW015 27/25 Q1012 NOSIG
Loading
Personal Weather Stations






























Interactive Weather Map New forecast layout! Learn more

10-Day Weather Forecast

Advertisements
Track Severe Weather on mobile